Sunday, March 24, 2019, 7:35 PM EDT
Back to Local

KCQX, Chatham Municipal Airport

Location: Chatham, MA, United States Lat: 41.683
Local Time: 7:35 PM EDT (23:35 GMT) Lon: -70
Time Zone: US/Eastern Elev: 68 ft

Show me the last for .
Show Decoded

2019-03-24 18:52 METAR KCQX 242252Z AUTO 23011G19KT 10SM CLR 06/M01 A2999 RMK AO2 SLP157
                 T00561006 =
2019-03-24 17:52 METAR KCQX 242152Z AUTO 23011G20KT 10SM CLR 06/M01 A2999 RMK AO2 SLP157
                 T00561006 =
2019-03-24 16:52 METAR KCQX 242052Z AUTO 23015G25KT 10SM CLR 06/M03 A3000 RMK AO2 SLP161
                 T00611028 55012 =
2019-03-24 15:52 METAR KCQX 241952Z AUTO 23010G20KT 10SM CLR 07/M02 A3000 RMK AO2 SLP160
                 T00721017 =
2019-03-24 14:52 METAR KCQX 241852Z AUTO 23011G23KT 10SM CLR 08/M02 A3001 RMK AO2 SLP165
                 T00831017 =
2019-03-24 13:52 METAR KCQX 241752Z AUTO 22010G20KT 10SM CLR 08/M01 A3004 RMK AO2 PK WND
                 22027/1710 SLP173 T00831006 10089 20017 56018 =
2019-03-24 12:52 METAR KCQX 241652Z AUTO 24012G20KT 10SM CLR 09/M04 A3005 RMK AO2 SLP176
                 T00891039 =
2019-03-24 11:52 METAR KCQX 241552Z AUTO 22007G16KT 10SM CLR 08/M03 A3006 RMK AO2 SLP181
                 T00781028 =
2019-03-24 10:52 METAR KCQX 241452Z AUTO VRB06G19KT 10SM CLR 07/M06 A3009 RMK AO2 SLP191
                 T00721056 51001 =
2019-03-24 09:52 METAR KCQX 241352Z AUTO 29009G15KT 10SM CLR 06/M09 A3009 RMK AO2 SLP190
                 T00561089 =
2019-03-24 08:52 METAR KCQX 241252Z AUTO 29007G16KT 10SM CLR 04/M08 A3009 RMK AO2 SLP192
                 T00391083 =
2019-03-24 07:52 METAR KCQX 241152Z AUTO VRB05KT 10SM CLR 02/M09 A3009 RMK AO2 SLP190 T00171094
                 10017 21006 51019 =
2019-03-24 06:52 METAR KCQX 241052Z AUTO 30004KT 10SM CLR 00/M11 A3007 RMK AO2 SLP185 T00001106 =
2019-03-24 05:52 METAR KCQX 240952Z AUTO VRB05KT 10SM CLR 00/M10 A3005 RMK AO2 SLP177 T00001100 =
2019-03-24 04:52 METAR KCQX 240852Z AUTO 30007KT 280V340 10SM CLR 01/M09 A3003 RMK AO2 SLP171
                 T00061094 53013 =
2019-03-24 03:52 METAR KCQX 240752Z AUTO 31008G17KT 270V340 10SM CLR 01/M09 A3001 RMK AO2 SLP164
                 T00111094 =
2019-03-24 02:52 METAR KCQX 240652Z AUTO 30008KT 10SM CLR 01/M09 A3000 RMK AO2 SLP161 T00111089 =
2019-03-24 01:52 METAR KCQX 240552Z AUTO 30009G15KT 10SM CLR 02/M09 A2999 RMK AO2 SLP158
                 T00171089 10056 20017 51028 =
2019-03-24 00:52 METAR KCQX 240452Z AUTO 30009G14KT 270V340 10SM CLR 02/M08 A2997 RMK AO2 SLP150
                 T00221083 400890000 =
2019-03-23 23:52 METAR KCQX 240352Z AUTO 30012G19KT 10SM CLR 03/M08 A2994 RMK AO2 SLP141
                 T00281078 =
2019-03-23 22:52 METAR KCQX 240252Z AUTO 29009G18KT 260V320 10SM CLR 03/M07 A2991 RMK AO2 PK WND
                 31027/0224 SLP130 T00331072 51036 =
2019-03-23 21:52 METAR KCQX 240152Z AUTO 29008G18KT 10SM CLR 04/M07 A2988 RMK AO2 SLP121
                 T00391072 =
2019-03-23 20:52 METAR KCQX 240052Z AUTO 29012G21KT 260V320 10SM CLR 05/M05 A2985 RMK AO2 SLP111
                 T00501050 =
2019-03-23 19:52 METAR KCQX 232352Z AUTO 28010G15KT 10SM CLR 06/M03 A2980 RMK AO2 SLP094
                 T00561033 10089 20056 53040 =

Support USWX by starting your Amazon purchase here.